createdAt,value
2019-06-01T00:01:28.724Z,4.80
2019-06-01T00:04:43.005Z,3.23
2019-06-01T00:07:57.167Z,4.97
2019-06-01T00:11:10.742Z,4.40
2019-06-01T00:14:24.336Z,4.93
2019-06-01T00:17:38.084Z,3.57
2019-06-01T00:20:52.764Z,4.30
2019-06-01T00:24:06.289Z,3.70
2019-06-01T00:27:19.881Z,3.50
2019-06-01T00:30:33.545Z,4.03
2019-06-01T00:33:47.589Z,3.93
2019-06-01T00:37:01.169Z,5.00
2019-06-01T00:40:15.189Z,3.60
2019-06-01T00:43:28.818Z,3.80
2019-06-01T00:46:42.559Z,4.23
2019-06-01T00:49:56.193Z,3.87
2019-06-01T00:53:09.853Z,3.90
2019-06-01T00:56:23.429Z,3.43
2019-06-01T00:59:37.059Z,3.40
2019-06-01T01:02:50.569Z,5.00
2019-06-01T01:06:04.450Z,3.10
2019-06-01T01:09:17.955Z,3.17
2019-06-01T01:12:33.350Z,3.77
2019-06-01T01:15:47.288Z,3.43
2019-06-01T01:19:00.832Z,3.67
2019-06-01T01:22:14.317Z,3.03
2019-06-01T01:25:27.971Z,4.00
2019-06-01T01:28:41.483Z,3.53
2019-06-01T01:31:55.306Z,5.00
2019-06-01T01:35:08.979Z,4.37
2019-06-01T01:38:22.613Z,3.63
2019-06-01T01:41:36.315Z,3.37
2019-06-01T01:44:50.530Z,3.90
2019-06-01T01:48:04.533Z,3.17
2019-06-01T01:51:18.453Z,4.10
2019-06-01T01:54:31.976Z,3.90
2019-06-01T01:57:45.505Z,4.03
2019-06-01T02:01:00.348Z,4.37
2019-06-01T02:04:14.657Z,4.30
2019-06-01T02:07:28.157Z,3.87
2019-06-01T02:10:42.120Z,4.17
2019-06-01T02:13:55.734Z,3.50
2019-06-01T02:17:09.247Z,4.20
2019-06-01T02:20:22.958Z,5.80
2019-06-01T02:23:36.587Z,3.87
2019-06-01T02:26:50.073Z,5.03
2019-06-01T02:30:05.564Z,4.10
2019-06-01T02:33:19.281Z,4.90
2019-06-01T02:36:33.174Z,4.00
2019-06-01T02:39:46.867Z,4.27
2019-06-01T02:43:01.410Z,3.60
2019-06-01T02:46:15.728Z,4.63
2019-06-01T02:49:29.474Z,3.57
2019-06-01T02:52:43.192Z,3.93
2019-06-01T02:55:57.851Z,3.90
2019-06-01T02:59:11.545Z,3.47
2019-06-01T03:02:25.260Z,3.47
2019-06-01T03:05:39.212Z,3.70
2019-06-01T03:08:55.354Z,4.00
2019-06-01T03:12:11.209Z,3.97
2019-06-01T03:15:28.168Z,4.63
2019-06-01T03:18:44.694Z,3.53
2019-06-01T03:22:03.130Z,5.13
2019-06-01T03:25:16.002Z,3.73
2019-06-01T03:28:33.620Z,4.57
2019-06-01T03:31:47.779Z,4.33
2019-06-01T03:35:02.537Z,5.23
2019-06-01T03:38:16.633Z,4.03
2019-06-01T03:41:30.764Z,3.93
2019-06-01T03:44:44.506Z,3.60
2019-06-01T03:47:58.472Z,3.90
2019-06-01T03:51:12.083Z,3.83
2019-06-01T03:54:25.692Z,3.87
2019-06-01T03:57:39.452Z,5.43
2019-06-01T04:00:53.093Z,3.90
2019-06-01T04:04:07.124Z,3.83
2019-06-01T04:07:21.037Z,3.27
2019-06-01T04:10:34.675Z,3.50
2019-06-01T04:13:48.166Z,4.60
2019-06-01T04:17:02.023Z,4.27
2019-06-01T04:20:15.730Z,3.57
2019-06-01T04:23:29.356Z,4.70
2019-06-01T04:26:42.874Z,4.47
2019-06-01T04:29:56.419Z,3.80
2019-06-01T04:33:11.034Z,4.30
2019-06-01T04:36:24.577Z,3.70
2019-06-01T04:39:38.534Z,4.07
2019-06-01T04:42:52.261Z,3.67
2019-06-01T04:46:06.164Z,4.70
2019-06-01T04:49:19.665Z,4.60
2019-06-01T04:52:33.579Z,4.10
2019-06-01T04:55:47.094Z,3.70
2019-06-01T04:59:01.017Z,3.63
2019-06-01T05:02:15.260Z,3.90
2019-06-01T05:05:28.945Z,3.73
2019-06-01T05:08:42.456Z,4.10
2019-06-01T05:11:55.992Z,6.53
2019-06-01T05:16:37.805Z,4.70
2019-06-01T05:19:51.418Z,4.13
2019-06-01T05:23:05.309Z,4.07
2019-06-01T05:26:20.536Z,4.73
2019-06-01T05:29:34.448Z,4.80
2019-06-01T05:32:48.026Z,4.70
2019-06-01T05:36:01.582Z,4.63
2019-06-01T05:39:16.313Z,4.93
2019-06-01T05:42:29.941Z,4.63
2019-06-01T05:45:43.431Z,4.57
2019-06-01T05:48:57.314Z,4.97
2019-06-01T05:52:12.324Z,4.37
2019-06-01T05:55:26.129Z,8.57
2019-06-01T05:58:39.654Z,5.87
2019-06-01T06:01:53.255Z,26.57
2019-06-01T06:05:07.482Z,31.73
2019-06-01T06:08:22.187Z,17.00
2019-06-01T06:11:35.913Z,7.83
2019-06-01T06:14:49.430Z,10.20
2019-06-01T06:18:03.163Z,15.33
2019-06-01T06:21:16.695Z,13.53
2019-06-01T06:24:30.338Z,8.10
2019-06-01T06:27:43.967Z,8.73
2019-06-01T06:30:58.168Z,7.27
2019-06-01T06:34:13.271Z,12.97
2019-06-01T06:37:26.857Z,8.40
2019-06-01T06:40:40.800Z,12.87
2019-06-01T06:43:54.624Z,27.60
2019-06-01T06:47:08.459Z,7.40
2019-06-01T06:50:23.459Z,8.23
2019-06-01T06:53:37.236Z,5.23
2019-06-01T06:56:50.856Z,4.27
2019-06-01T07:00:04.763Z,4.77
2019-06-01T07:03:18.923Z,2.47
2019-06-01T07:06:32.573Z,3.40
2019-06-01T07:09:46.348Z,2.75
2019-06-01T07:13:00.008Z,3.20
2019-06-01T07:16:13.558Z,2.80
2019-06-01T07:19:27.916Z,2.33
2019-06-01T07:22:41.737Z,2.57
2019-06-01T07:25:55.514Z,2.40
2019-06-01T07:29:09.440Z,2.30
2019-06-01T07:32:24.613Z,3.73
2019-06-01T07:35:38.412Z,2.50
2019-06-01T07:38:53.438Z,2.40
2019-06-01T07:42:07.126Z,2.80
2019-06-01T07:45:20.922Z,2.27
2019-06-01T07:48:34.437Z,2.80
2019-06-01T07:51:48.154Z,2.80
2019-06-01T07:55:02.948Z,2.50
2019-06-01T07:58:16.815Z,2.53
2019-06-01T08:01:32.491Z,2.77
2019-06-01T08:04:53.337Z,2.73
2019-06-01T08:08:02.282Z,4.03
2019-06-01T08:11:15.971Z,3.43
2019-06-01T08:14:30.598Z,3.43
2019-06-01T08:17:44.216Z,3.87
2019-06-01T08:20:57.879Z,4.07
2019-06-01T08:24:11.645Z,2.30
2019-06-01T08:27:26.470Z,3.17
2019-06-01T08:30:40.519Z,2.57
2019-06-01T08:33:54.273Z,2.27
2019-06-01T08:37:07.905Z,2.87
2019-06-01T08:40:21.707Z,2.77
2019-06-01T08:43:35.691Z,3.00
2019-06-01T08:47:09.276Z,2.43
2019-06-01T08:50:23.827Z,3.27
2019-06-01T08:53:37.794Z,2.67
2019-06-01T08:56:51.439Z,2.33
2019-06-01T09:00:05.629Z,2.97
2019-06-01T09:03:19.467Z,2.87
2019-06-01T09:06:33.439Z,3.93
2019-06-01T09:09:47.236Z,3.00
2019-06-01T09:13:00.906Z,4.47
2019-06-01T09:16:14.875Z,2.30
2019-06-01T09:19:29.435Z,2.60
2019-06-01T09:22:43.316Z,3.20
2019-06-01T09:25:58.873Z,2.10
2019-06-01T09:29:13.032Z,2.27
2019-06-01T09:32:27.840Z,2.30
2019-06-01T09:35:54.268Z,2.43
2019-06-01T09:38:57.507Z,1.87
2019-06-01T09:42:11.144Z,2.83
2019-06-01T09:45:24.872Z,2.10
2019-06-01T09:48:38.540Z,4.83
2019-06-01T09:51:52.521Z,2.47
2019-06-01T09:55:06.649Z,1.73
2019-06-01T09:58:30.142Z,2.47
2019-06-01T10:01:44.021Z,4.30
2019-06-01T10:04:58.122Z,1.93
2019-06-01T10:08:11.875Z,3.70
2019-06-01T10:11:25.717Z,1.90
2019-06-01T10:14:39.544Z,4.40
2019-06-01T10:17:53.092Z,2.57
2019-06-01T10:21:06.972Z,4.50
2019-06-01T10:24:20.604Z,2.57
2019-06-01T10:27:34.551Z,3.00
2019-06-01T10:30:48.472Z,4.67
2019-06-01T10:34:02.419Z,2.27
2019-06-01T10:37:16.253Z,2.17
2019-06-01T10:40:31.227Z,1.97
2019-06-01T10:43:44.856Z,2.67
2019-06-01T10:46:58.744Z,2.20
2019-06-01T10:50:17.116Z,1.93
2019-06-01T10:53:28.713Z,2.53
2019-06-01T10:56:42.599Z,3.07
2019-06-01T10:59:56.281Z,2.00
2019-06-01T11:03:10.084Z,1.80
2019-06-01T11:06:36.700Z,2.10
2019-06-01T11:09:39.140Z,1.83
2019-06-01T11:12:52.660Z,3.43
2019-06-01T11:16:06.446Z,1.70
2019-06-01T11:19:20.584Z,2.33
2019-06-01T11:22:39.954Z,2.47
2019-06-01T11:25:53.531Z,2.27
2019-06-01T11:29:08.035Z,2.30
2019-06-01T11:32:22.215Z,4.20
2019-06-01T11:35:37.176Z,5.40
2019-06-01T11:38:51.460Z,4.17
2019-06-01T11:42:05.061Z,1.63
2019-06-01T11:45:18.848Z,1.83
2019-06-01T11:48:32.862Z,2.33
2019-06-01T11:51:46.817Z,2.00
2019-06-01T11:55:00.584Z,1.83
2019-06-01T11:58:14.395Z,2.03
2019-06-01T12:01:28.258Z,1.70
2019-06-01T12:04:41.998Z,2.13
2019-06-01T12:07:55.874Z,1.67
2019-06-01T12:11:09.614Z,1.53
2019-06-01T12:16:38.489Z,1.93
2019-06-01T12:19:52.389Z,2.30
2019-06-01T12:23:06.318Z,2.10
2019-06-01T12:26:19.961Z,2.33
2019-06-01T12:29:33.614Z,6.63
2019-06-01T12:32:48.734Z,2.53
2019-06-01T12:36:03.749Z,1.97
2019-06-01T12:39:17.446Z,3.20
2019-06-01T12:42:30.987Z,2.20
2019-06-01T12:45:45.776Z,1.77
2019-06-01T12:48:59.550Z,2.73
2019-06-01T12:52:13.188Z,2.33
2019-06-01T12:55:26.950Z,1.60
2019-06-01T12:58:41.894Z,2.90
2019-06-01T13:01:57.004Z,1.73
2019-06-01T13:05:30.310Z,2.00
2019-06-01T13:08:44.729Z,2.07
2019-06-01T13:11:58.501Z,2.27
2019-06-01T13:15:12.949Z,2.50
2019-06-01T13:18:27.461Z,1.90
2019-06-01T13:21:41.398Z,2.13
2019-06-01T13:24:55.368Z,1.80
2019-06-01T13:28:09.248Z,1.70
2019-06-01T13:31:22.977Z,1.93
2019-06-01T13:34:36.920Z,2.27
2019-06-01T13:37:55.381Z,2.57
2019-06-01T13:41:06.575Z,2.00
2019-06-01T13:44:24.914Z,1.73
2019-06-01T13:47:38.507Z,2.43
2019-06-01T13:50:55.575Z,1.90
2019-06-01T13:54:09.230Z,2.00
2019-06-01T13:57:25.489Z,2.10
2019-06-01T14:00:39.638Z,4.57
2019-06-01T14:03:54.044Z,2.10
2019-06-01T14:07:09.307Z,2.00
2019-06-01T14:10:24.307Z,1.83
2019-06-01T14:13:38.219Z,1.83
2019-06-01T14:16:52.102Z,2.10
2019-06-01T14:20:06.910Z,1.70
2019-06-01T14:23:45.766Z,1.73
2019-06-01T14:26:59.476Z,2.03
2019-06-01T14:30:14.090Z,1.60
2019-06-01T14:33:27.904Z,2.85
2019-06-01T14:36:42.068Z,2.10
2019-06-01T14:39:57.099Z,1.97
2019-06-01T14:43:10.961Z,1.60
2019-06-01T14:46:26.910Z,2.67
2019-06-01T14:49:43.588Z,1.70
2019-06-01T14:52:57.885Z,1.97
2019-06-01T14:56:11.859Z,2.10
2019-06-01T14:59:25.700Z,2.10
2019-06-01T15:02:39.504Z,1.87
2019-06-01T15:05:56.526Z,1.93
2019-06-01T15:09:19.143Z,2.57
2019-06-01T15:12:28.366Z,1.77
2019-06-01T15:15:42.004Z,2.33
2019-06-01T15:18:56.188Z,2.00
2019-06-01T15:22:10.244Z,2.70
2019-06-01T15:25:24.111Z,2.00
2019-06-01T15:28:37.864Z,2.90
2019-06-01T15:35:12.322Z,2.07
2019-06-01T15:38:25.890Z,3.07
2019-06-01T15:41:41.006Z,3.90
2019-06-01T15:44:56.984Z,2.60
2019-06-01T15:48:11.146Z,1.87
2019-06-01T15:51:25.057Z,2.90
2019-06-01T15:54:38.884Z,2.23
2019-06-01T15:57:54.382Z,2.10
2019-06-01T16:01:08.989Z,3.30
2019-06-01T16:04:22.844Z,2.97
2019-06-01T16:07:40.215Z,2.67
2019-06-01T16:11:00.160Z,2.07
2019-06-01T16:14:11.924Z,2.00
2019-06-01T16:21:08.157Z,2.10
2019-06-01T16:24:41.921Z,1.67
2019-06-01T16:27:58.759Z,1.77
2019-06-01T16:31:12.901Z,1.70
2019-06-01T16:34:26.856Z,2.97
2019-06-01T16:37:40.961Z,1.63
2019-06-01T16:40:57.027Z,2.03
2019-06-01T16:44:11.354Z,1.40
2019-06-01T16:47:25.129Z,1.73
2019-06-01T16:50:59.558Z,1.70
2019-06-01T16:54:15.662Z,1.60
2019-06-01T16:57:29.804Z,2.93
2019-06-01T17:00:43.855Z,2.97
2019-06-01T17:03:58.560Z,2.03
2019-06-01T17:07:12.859Z,1.60
2019-06-01T17:10:26.949Z,4.00
2019-06-01T17:13:41.038Z,1.77
2019-06-01T17:16:55.269Z,3.37
2019-06-01T17:20:59.519Z,1.97
2019-06-01T17:24:13.704Z,2.10
2019-06-01T17:27:27.843Z,5.70
2019-06-01T17:30:41.804Z,4.67
2019-06-01T17:33:55.649Z,2.47
2019-06-01T17:37:12.385Z,3.13
2019-06-01T17:40:36.793Z,3.47
2019-06-01T17:43:42.139Z,2.90
2019-06-01T17:46:56.466Z,1.77
2019-06-01T17:50:11.742Z,2.80
2019-06-01T17:53:25.705Z,2.60
2019-06-01T17:56:39.523Z,3.67
2019-06-01T18:00:11.773Z,3.57
2019-06-01T18:03:26.075Z,2.37
2019-06-01T18:06:40.005Z,3.97
2019-06-01T18:09:53.784Z,2.30
2019-06-01T18:13:08.641Z,2.17
2019-06-01T18:16:22.791Z,2.00
2019-06-01T18:19:48.686Z,5.87
2019-06-01T18:23:03.892Z,3.30
2019-06-01T18:26:18.560Z,3.03
2019-06-01T18:29:32.434Z,2.73
2019-06-01T18:32:46.246Z,2.97
2019-06-01T18:36:00.138Z,5.57
2019-06-01T18:39:13.935Z,3.07
2019-06-01T18:42:29.343Z,4.03
2019-06-01T18:45:43.755Z,2.97
2019-06-01T18:48:57.482Z,4.90
2019-06-01T18:52:11.268Z,2.33
2019-06-01T18:55:27.488Z,4.37
2019-06-01T18:58:43.315Z,2.53
2019-06-01T19:01:56.904Z,2.80
2019-06-01T19:05:11.185Z,7.43
2019-06-01T19:08:24.861Z,5.73
2019-06-01T19:11:38.571Z,3.27
2019-06-01T19:14:52.421Z,3.33
2019-06-01T19:18:06.446Z,3.13
2019-06-01T19:21:19.999Z,4.13
2019-06-01T19:24:34.022Z,3.43
2019-06-01T19:27:47.586Z,3.73
2019-06-01T19:31:01.299Z,3.37
2019-06-01T19:34:15.426Z,3.30
2019-06-01T19:37:30.294Z,3.67
2019-06-01T19:40:43.841Z,3.83
2019-06-01T19:43:57.592Z,7.27
2019-06-01T19:47:11.843Z,6.77
2019-06-01T19:50:25.379Z,5.90
2019-06-01T19:53:38.908Z,4.23
2019-06-01T19:56:53.100Z,4.83
2019-06-01T20:00:07.084Z,4.20
2019-06-01T20:03:22.206Z,6.77
2019-06-01T20:06:36.029Z,8.03
2019-06-01T20:09:49.591Z,7.50
2019-06-01T20:13:03.327Z,7.63
2019-06-01T20:16:20.146Z,7.67
2019-06-01T20:19:34.595Z,6.17
2019-06-01T20:22:48.207Z,5.00
2019-06-01T20:26:02.005Z,3.87
2019-06-01T20:29:15.701Z,4.80
2019-06-01T20:32:29.197Z,3.83
2019-06-01T20:35:42.717Z,3.77
2019-06-01T20:38:56.327Z,4.17
2019-06-01T20:42:21.077Z,4.70
2019-06-01T20:45:25.264Z,5.20
2019-06-01T20:48:38.874Z,5.77
2019-06-01T20:51:52.562Z,6.03
2019-06-01T20:55:07.026Z,3.73
2019-06-01T20:58:22.075Z,3.67
2019-06-01T21:01:36.091Z,4.17
2019-06-01T21:04:49.715Z,4.20
2019-06-01T21:08:03.718Z,5.17
2019-06-01T21:11:17.994Z,4.87
2019-06-01T21:16:38.087Z,4.47
2019-06-01T21:19:52.064Z,4.67
2019-06-01T21:23:05.668Z,5.50
2019-06-01T21:26:19.191Z,4.87
2019-06-01T21:29:32.793Z,5.47
2019-06-01T21:32:46.411Z,6.57
2019-06-01T21:36:00.207Z,4.47
2019-06-01T21:39:13.722Z,4.83
2019-06-01T21:42:27.253Z,4.73
2019-06-01T21:45:40.875Z,5.30
2019-06-01T21:48:54.378Z,4.47
2019-06-01T21:52:07.902Z,5.50
2019-06-01T21:55:22.271Z,6.57
2019-06-01T21:58:35.837Z,5.07
2019-06-01T22:01:49.571Z,5.23
2019-06-01T22:05:03.965Z,4.60
2019-06-01T22:08:17.546Z,5.00
2019-06-01T22:11:31.069Z,5.20
2019-06-01T22:14:44.570Z,5.30
2019-06-01T22:17:58.108Z,4.53
2019-06-01T22:21:11.658Z,4.27
2019-06-01T22:24:25.931Z,4.37
2019-06-01T22:27:39.564Z,4.53
2019-06-01T22:30:53.076Z,4.87
2019-06-01T22:34:06.596Z,4.57
2019-06-01T22:37:20.129Z,4.50
2019-06-01T22:40:33.645Z,4.80
2019-06-01T22:43:47.357Z,5.17
2019-06-01T22:47:00.863Z,4.53
2019-06-01T22:50:14.562Z,5.73
2019-06-01T22:53:28.399Z,6.83
2019-06-01T22:56:42.053Z,5.40
2019-06-01T22:59:55.649Z,5.03
2019-06-01T23:03:09.175Z,5.10
2019-06-01T23:06:23.082Z,4.87
2019-06-01T23:09:36.690Z,4.77
2019-06-01T23:12:50.592Z,4.90
2019-06-01T23:16:04.327Z,4.93
2019-06-01T23:19:17.914Z,6.53
2019-06-01T23:22:32.411Z,4.87
2019-06-01T23:25:45.948Z,4.93
2019-06-01T23:28:59.580Z,4.27
2019-06-01T23:32:13.457Z,4.70
2019-06-01T23:35:26.977Z,6.33
2019-06-01T23:38:40.844Z,4.50
2019-06-01T23:41:54.454Z,4.60
2019-06-01T23:45:08.654Z,6.10
2019-06-01T23:48:23.113Z,4.00
2019-06-01T23:51:37.111Z,5.23
2019-06-01T23:54:50.700Z,4.70
2019-06-01T23:58:04.309Z,5.47
